createdAt,value
2023-09-29T00:02:54.246Z,20.80
2023-09-29T00:05:56.637Z,20.88
2023-09-29T00:08:59.481Z,20.88
2023-09-29T00:12:01.701Z,20.78
2023-09-29T00:15:07.647Z,20.73
2023-09-29T00:18:09.962Z,20.65
2023-09-29T00:21:12.483Z,20.71
2023-09-29T00:24:14.678Z,20.81
2023-09-29T00:27:29.702Z,20.83
2023-09-29T00:30:31.917Z,20.89
2023-09-29T00:33:34.647Z,20.94
2023-09-29T00:36:37.004Z,20.97
2023-09-29T00:39:39.210Z,20.79
2023-09-29T00:42:42.979Z,20.78
2023-09-29T00:45:46.309Z,20.73
2023-09-29T00:48:50.460Z,20.73
2023-09-29T00:51:53.268Z,20.79
2023-09-29T00:54:55.969Z,20.84
2023-09-29T00:57:59.780Z,20.78
2023-09-29T01:01:02.799Z,20.78
2023-09-29T01:04:05.953Z,20.81
2023-09-29T01:07:08.963Z,20.79
2023-09-29T01:10:20.263Z,20.83
2023-09-29T01:13:23.722Z,20.76
2023-09-29T01:16:26.134Z,20.75
2023-09-29T01:19:28.363Z,20.81
2023-09-29T01:22:31.435Z,20.78
2023-09-29T01:25:34.271Z,20.72
2023-09-29T01:28:36.535Z,20.67
2023-09-29T01:31:40.156Z,20.63
2023-09-29T01:34:42.356Z,20.67
2023-09-29T01:37:47.937Z,20.60
2023-09-29T01:40:50.135Z,20.69
2023-09-29T01:43:53.565Z,20.63
2023-09-29T01:46:57.120Z,20.60
2023-09-29T01:50:00.529Z,20.43
2023-09-29T01:53:03.338Z,20.40
2023-09-29T01:56:05.653Z,20.47
2023-09-29T01:59:07.908Z,20.53
2023-09-29T02:02:10.186Z,20.55
2023-09-29T02:05:13.137Z,20.54
2023-09-29T02:08:15.876Z,20.59
2023-09-29T02:11:18.785Z,20.43
2023-09-29T02:14:21.677Z,20.41
2023-09-29T02:17:24.180Z,20.43
2023-09-29T02:20:34.853Z,20.46
2023-09-29T02:23:39.397Z,20.35
2023-09-29T02:26:42.785Z,20.44
2023-09-29T02:29:45.107Z,20.35
2023-09-29T02:32:47.629Z,20.40
2023-09-29T02:35:51.623Z,20.42
2023-09-29T02:38:54.237Z,20.44
2023-09-29T02:41:57.646Z,20.38
2023-09-29T02:44:59.913Z,20.36
2023-09-29T02:48:03.599Z,20.38
2023-09-29T02:51:15.359Z,20.40
2023-09-29T02:54:17.536Z,20.29
2023-09-29T02:57:22.137Z,20.31
2023-09-29T03:00:28.020Z,20.34
2023-09-29T03:03:30.530Z,20.33
2023-09-29T03:06:33.419Z,20.42
2023-09-29T03:09:35.624Z,20.42
2023-09-29T03:12:37.788Z,20.45
2023-09-29T03:15:42.777Z,20.35
2023-09-29T03:18:45.069Z,20.23
2023-09-29T03:21:47.359Z,20.21
2023-09-29T03:24:49.593Z,20.27
2023-09-29T03:27:51.845Z,20.14
2023-09-29T03:30:54.165Z,20.05
2023-09-29T03:33:56.432Z,20.11
2023-09-29T03:36:58.679Z,20.13
2023-09-29T03:40:00.881Z,20.13
2023-09-29T03:43:03.052Z,20.07
2023-09-29T03:46:05.738Z,19.93
2023-09-29T03:49:08.500Z,20.05
2023-09-29T03:52:10.729Z,19.89
2023-09-29T03:55:14.246Z,19.95
2023-09-29T03:58:16.567Z,19.95
2023-09-29T04:01:18.994Z,19.90
2023-09-29T04:04:21.321Z,19.91
2023-09-29T04:07:23.557Z,19.88
2023-09-29T04:10:25.903Z,20.06
2023-09-29T04:13:28.163Z,19.99
2023-09-29T04:16:33.514Z,19.90
2023-09-29T04:19:36.584Z,19.99
2023-09-29T04:22:39.092Z,19.91
2023-09-29T04:25:41.292Z,19.91
2023-09-29T04:28:43.536Z,19.92
2023-09-29T04:31:45.737Z,19.86
2023-09-29T04:34:47.921Z,19.87
2023-09-29T04:37:51.304Z,19.94
2023-09-29T04:40:53.560Z,19.90
2023-09-29T04:43:55.781Z,19.89
2023-09-29T04:46:58.039Z,19.80
2023-09-29T04:50:00.237Z,19.97
2023-09-29T04:53:02.489Z,19.91
2023-09-29T04:56:04.760Z,19.99
2023-09-29T04:59:07.683Z,20.04
2023-09-29T05:02:09.963Z,19.83
2023-09-29T05:05:12.195Z,19.98
2023-09-29T05:08:16.037Z,20.08
2023-09-29T05:11:22.479Z,20.20
2023-09-29T05:14:25.897Z,20.24
2023-09-29T05:17:44.423Z,20.30
2023-09-29T05:20:51.747Z,20.29
2023-09-29T05:23:54.578Z,20.22
2023-09-29T05:26:57.132Z,20.33
2023-09-29T05:30:00.076Z,20.23
2023-09-29T05:33:02.363Z,20.37
2023-09-29T05:36:05.090Z,20.36
2023-09-29T05:39:07.332Z,20.45
2023-09-29T05:42:13.806Z,20.43
2023-09-29T05:45:16.157Z,20.51
2023-09-29T05:48:18.656Z,20.55
2023-09-29T05:51:21.082Z,20.47
2023-09-29T05:54:23.764Z,20.49
2023-09-29T05:57:26.360Z,20.57
2023-09-29T06:00:29.804Z,20.59
2023-09-29T06:03:32.235Z,20.67
2023-09-29T06:06:35.377Z,20.53
2023-09-29T06:09:37.831Z,20.53
2023-09-29T06:12:41.922Z,20.60
2023-09-29T06:15:46.601Z,20.72
2023-09-29T06:22:16.053Z,20.90
2023-09-29T06:25:18.484Z,21.00
2023-09-29T06:28:21.252Z,20.93
2023-09-29T06:31:25.212Z,20.76
2023-09-29T06:34:27.470Z,20.89
2023-09-29T06:37:30.185Z,20.93
2023-09-29T06:40:32.458Z,21.07
2023-09-29T06:43:35.142Z,20.98
2023-09-29T06:46:38.936Z,21.05
2023-09-29T06:49:43.711Z,21.22
2023-09-29T06:52:46.285Z,21.29
2023-09-29T06:55:52.687Z,21.39
2023-09-29T06:58:56.844Z,21.43
2023-09-29T07:01:59.527Z,21.50
2023-09-29T07:05:04.637Z,21.50
2023-09-29T07:08:09.487Z,21.65
2023-09-29T07:11:23.536Z,21.69
2023-09-29T07:14:32.288Z,21.77
2023-09-29T07:17:36.560Z,21.74
2023-09-29T07:20:39.223Z,21.84
2023-09-29T07:23:42.104Z,21.78
2023-09-29T07:26:44.477Z,21.86
2023-09-29T07:29:50.986Z,21.94
2023-09-29T07:32:54.444Z,22.17
2023-09-29T07:35:58.314Z,22.32
2023-09-29T07:39:09.162Z,22.22
2023-09-29T07:42:12.384Z,22.26
2023-09-29T07:45:14.971Z,22.34
2023-09-29T07:48:25.203Z,22.41
2023-09-29T07:51:31.072Z,22.49
2023-09-29T07:54:35.933Z,22.54
2023-09-29T07:57:45.010Z,22.62
2023-09-29T08:00:55.935Z,22.61
2023-09-29T08:04:04.901Z,22.73
2023-09-29T08:07:26.048Z,22.82
2023-09-29T08:10:28.489Z,22.83
2023-09-29T08:13:31.069Z,22.87
2023-09-29T08:16:34.089Z,22.95
2023-09-29T08:19:37.013Z,23.01
2023-09-29T08:22:41.614Z,23.03
2023-09-29T08:25:45.491Z,23.04
2023-09-29T08:28:50.138Z,23.16
2023-09-29T08:31:55.350Z,23.22
2023-09-29T08:35:01.149Z,23.23
2023-09-29T08:38:04.077Z,23.33
2023-09-29T08:41:09.847Z,23.34
2023-09-29T08:44:16.098Z,23.37
2023-09-29T08:47:20.177Z,23.33
2023-09-29T08:50:36.799Z,23.45
2023-09-29T08:53:44.920Z,23.45
2023-09-29T08:57:19.145Z,23.50
2023-09-29T09:00:22.492Z,23.56
2023-09-29T09:03:38.931Z,23.45
2023-09-29T09:06:42.418Z,23.46
2023-09-29T09:10:02.837Z,23.58
2023-09-29T09:13:09.384Z,23.72
2023-09-29T09:16:13.026Z,23.78
2023-09-29T09:19:16.374Z,23.69
2023-09-29T09:22:38.952Z,23.74
2023-09-29T09:25:45.730Z,23.88
2023-09-29T09:28:47.957Z,23.96
2023-09-29T09:31:56.528Z,24.03
2023-09-29T09:34:59.537Z,24.06
2023-09-29T09:38:02.708Z,24.12
2023-09-29T09:41:06.579Z,24.16
2023-09-29T09:44:09.008Z,24.15
2023-09-29T09:47:15.473Z,24.21
2023-09-29T09:50:17.875Z,24.23
2023-09-29T09:53:22.164Z,24.32
2023-09-29T09:56:25.791Z,24.33
2023-09-29T09:59:29.263Z,24.28
2023-09-29T10:02:34.634Z,24.34
2023-09-29T10:05:41.327Z,24.45
2023-09-29T10:08:45.757Z,24.47
2023-09-29T10:12:00.788Z,24.47
2023-09-29T10:15:07.185Z,24.47
2023-09-29T10:18:20.918Z,24.51
2023-09-29T10:21:26.990Z,24.59
2023-09-29T10:24:30.119Z,24.63
2023-09-29T10:27:41.249Z,24.64
2023-09-29T10:30:43.462Z,24.65
2023-09-29T10:33:46.077Z,24.74
2023-09-29T10:36:56.003Z,24.73
2023-09-29T10:39:59.245Z,24.79
2023-09-29T10:43:03.866Z,24.82
2023-09-29T10:46:09.936Z,24.81
2023-09-29T10:49:32.340Z,24.88
2023-09-29T10:52:56.299Z,24.81
2023-09-29T10:56:10.311Z,24.78
2023-09-29T10:59:12.954Z,24.96
2023-09-29T11:02:15.490Z,25.06
2023-09-29T11:05:18.308Z,25.02
2023-09-29T11:08:26.272Z,25.11
2023-09-29T11:11:37.587Z,25.11
2023-09-29T11:14:41.205Z,25.22
2023-09-29T11:17:51.506Z,25.23
2023-09-29T11:20:54.401Z,25.32
2023-09-29T11:24:06.240Z,25.34
2023-09-29T11:27:08.635Z,25.27
2023-09-29T11:30:12.073Z,25.42
2023-09-29T11:33:16.257Z,25.43
2023-09-29T11:36:24.376Z,25.50
2023-09-29T11:39:26.646Z,25.41
2023-09-29T11:42:29.384Z,25.48
2023-09-29T11:45:31.737Z,25.63
2023-09-29T11:48:34.047Z,25.60
2023-09-29T11:51:36.419Z,25.72
2023-09-29T11:54:39.349Z,25.79
2023-09-29T11:57:41.982Z,25.85
2023-09-29T12:00:44.307Z,25.87
2023-09-29T12:03:46.881Z,25.97
2023-09-29T12:06:49.244Z,26.00
2023-09-29T12:09:51.664Z,26.08
2023-09-29T12:12:53.824Z,26.15
2023-09-29T12:15:56.213Z,26.16
2023-09-29T12:18:58.509Z,26.16
2023-09-29T12:22:00.754Z,26.21
2023-09-29T12:25:02.938Z,26.15
2023-09-29T12:28:05.545Z,26.17
2023-09-29T12:31:16.020Z,26.25
2023-09-29T12:34:19.101Z,26.36
2023-09-29T12:37:21.347Z,26.30
2023-09-29T12:40:23.652Z,26.45
2023-09-29T12:43:25.797Z,26.51
2023-09-29T12:46:27.989Z,26.48
2023-09-29T12:49:30.429Z,26.60
2023-09-29T12:52:32.850Z,26.66
2023-09-29T12:55:35.166Z,26.71
2023-09-29T12:58:37.331Z,26.69
2023-09-29T13:01:39.810Z,26.79
2023-09-29T13:04:43.127Z,26.80
2023-09-29T13:07:50.520Z,26.80
2023-09-29T13:10:52.777Z,26.91
2023-09-29T13:13:55.741Z,27.06
2023-09-29T13:16:59.059Z,27.03
2023-09-29T13:20:01.287Z,27.16
2023-09-29T13:23:03.526Z,27.15
2023-09-29T13:26:06.550Z,27.13
2023-09-29T13:29:09.783Z,27.14
2023-09-29T13:32:12.952Z,27.31
2023-09-29T13:35:15.201Z,27.32
2023-09-29T13:38:18.851Z,27.35
2023-09-29T13:41:21.809Z,27.37
2023-09-29T13:44:23.961Z,27.42
2023-09-29T13:47:26.308Z,27.45
2023-09-29T13:50:30.341Z,27.38
2023-09-29T13:53:32.535Z,27.48
2023-09-29T13:56:35.052Z,27.49
2023-09-29T13:59:37.505Z,27.45
2023-09-29T14:02:39.751Z,27.54
2023-09-29T14:05:42.745Z,27.49
2023-09-29T14:08:45.529Z,27.48
2023-09-29T14:11:47.873Z,27.62
2023-09-29T14:14:50.173Z,27.59
2023-09-29T14:17:52.561Z,27.65
2023-09-29T14:20:54.808Z,27.59
2023-09-29T14:23:57.274Z,27.66
2023-09-29T14:26:59.968Z,27.64
2023-09-29T14:30:04.832Z,27.73
2023-09-29T14:33:07.258Z,27.72
2023-09-29T14:36:09.615Z,27.70
2023-09-29T14:39:12.202Z,27.67
2023-09-29T14:42:14.609Z,27.69
2023-09-29T14:45:16.978Z,27.66
2023-09-29T14:48:20.791Z,27.55
2023-09-29T14:51:23.437Z,27.58
2023-09-29T14:54:26.151Z,27.58
2023-09-29T14:57:28.395Z,27.62
2023-09-29T15:00:30.656Z,27.60
2023-09-29T15:03:33.321Z,27.60
2023-09-29T15:06:35.765Z,27.56
2023-09-29T15:09:38.190Z,27.58
2023-09-29T15:12:40.382Z,27.53
2023-09-29T15:15:42.992Z,27.50
2023-09-29T15:18:50.676Z,27.55
2023-09-29T15:21:53.071Z,27.52
2023-09-29T15:24:55.426Z,27.48
2023-09-29T15:27:57.709Z,27.37
2023-09-29T15:31:00.957Z,27.39
2023-09-29T15:34:03.681Z,27.37
2023-09-29T15:37:06.498Z,27.35
2023-09-29T15:40:12.318Z,27.36
2023-09-29T15:43:14.520Z,27.31
2023-09-29T15:46:17.850Z,27.12
2023-09-29T15:49:20.375Z,27.17
2023-09-29T15:52:23.232Z,27.06
2023-09-29T15:55:25.367Z,26.96
2023-09-29T15:58:27.578Z,26.93
2023-09-29T16:01:30.219Z,26.83
2023-09-29T16:04:32.685Z,26.83
2023-09-29T16:07:35.008Z,26.72
2023-09-29T16:10:37.177Z,26.60
2023-09-29T16:13:39.501Z,26.50
2023-09-29T16:16:46.036Z,26.57
2023-09-29T16:19:48.701Z,26.49
2023-09-29T16:22:51.996Z,26.40
2023-09-29T16:25:54.232Z,26.45
2023-09-29T16:28:56.537Z,26.32
2023-09-29T16:31:59.331Z,26.22
2023-09-29T16:35:02.237Z,26.22
2023-09-29T16:38:05.161Z,26.01
2023-09-29T16:41:07.401Z,25.98
2023-09-29T16:44:10.850Z,25.76
2023-09-29T16:47:13.285Z,25.45
2023-09-29T16:50:16.564Z,25.32
2023-09-29T16:53:19.045Z,25.24
2023-09-29T16:56:26.316Z,25.11
2023-09-29T16:59:28.481Z,25.06
2023-09-29T17:02:30.796Z,24.97
2023-09-29T17:05:34.882Z,24.87
2023-09-29T17:08:37.701Z,24.79
2023-09-29T17:11:45.210Z,24.75
2023-09-29T17:14:47.454Z,24.75
2023-09-29T17:17:49.688Z,24.61
2023-09-29T17:20:53.245Z,24.60
2023-09-29T17:23:56.086Z,24.50
2023-09-29T17:26:58.610Z,24.41
2023-09-29T17:30:01.058Z,24.34
2023-09-29T17:33:03.466Z,24.23
2023-09-29T17:36:07.072Z,24.15
2023-09-29T17:39:09.318Z,23.99
2023-09-29T17:42:12.590Z,23.98
2023-09-29T17:45:15.087Z,23.90
2023-09-29T17:48:34.406Z,23.74
2023-09-29T17:51:39.990Z,23.70
2023-09-29T17:54:42.228Z,23.57
2023-09-29T17:57:44.438Z,23.56
2023-09-29T18:00:46.617Z,23.48
2023-09-29T18:03:49.068Z,23.52
2023-09-29T18:06:57.349Z,23.43
2023-09-29T18:09:59.889Z,23.32
2023-09-29T18:13:02.487Z,23.34
2023-09-29T18:16:06.822Z,23.39
2023-09-29T18:19:09.077Z,23.19
2023-09-29T18:22:11.287Z,23.28
2023-09-29T18:25:13.550Z,23.17
2023-09-29T18:28:15.926Z,23.14
2023-09-29T18:31:18.174Z,23.06
2023-09-29T18:34:20.415Z,22.91
2023-09-29T18:37:24.390Z,23.04
2023-09-29T18:40:28.103Z,22.93
2023-09-29T18:43:30.329Z,22.88
2023-09-29T18:46:32.533Z,22.88
2023-09-29T18:49:34.829Z,22.90
2023-09-29T18:52:37.021Z,22.86
2023-09-29T18:55:42.085Z,22.84
2023-09-29T18:58:44.370Z,22.72
2023-09-29T19:01:46.827Z,22.67
2023-09-29T19:04:50.777Z,22.70
2023-09-29T19:07:53.033Z,22.55
2023-09-29T19:10:56.277Z,22.52
2023-09-29T19:13:58.590Z,22.39
2023-09-29T19:17:03.427Z,22.40
2023-09-29T19:20:06.458Z,22.38
2023-09-29T19:23:08.661Z,22.35
2023-09-29T19:26:14.931Z,22.31
2023-09-29T19:29:17.090Z,22.19
2023-09-29T19:32:19.304Z,22.23
2023-09-29T19:35:21.487Z,22.14
2023-09-29T19:38:23.678Z,22.12
2023-09-29T19:41:28.563Z,22.14
2023-09-29T19:44:30.911Z,22.19
2023-09-29T19:47:33.135Z,22.07
2023-09-29T19:50:35.302Z,22.09
2023-09-29T19:53:38.052Z,22.00
2023-09-29T19:56:40.305Z,21.96
2023-09-29T19:59:42.558Z,21.92
2023-09-29T20:02:45.004Z,21.90
2023-09-29T20:05:48.731Z,21.86
2023-09-29T20:08:51.656Z,21.82
2023-09-29T20:11:54.311Z,21.71
2023-09-29T20:14:56.658Z,21.69
2023-09-29T20:17:58.917Z,21.56
2023-09-29T20:21:02.903Z,21.51
2023-09-29T20:24:14.461Z,21.54
2023-09-29T20:27:17.367Z,21.43
2023-09-29T20:30:20.904Z,21.46
2023-09-29T20:33:23.411Z,21.40
2023-09-29T20:36:29.158Z,21.38
2023-09-29T20:39:33.033Z,21.38
2023-09-29T20:42:35.747Z,21.36
2023-09-29T20:45:38.043Z,21.20
2023-09-29T20:48:40.529Z,21.27
2023-09-29T20:51:42.767Z,21.30
2023-09-29T20:54:45.493Z,21.24
2023-09-29T20:57:47.704Z,21.25
2023-09-29T21:00:49.904Z,21.27
2023-09-29T21:03:52.245Z,21.23
2023-09-29T21:06:54.574Z,21.19
2023-09-29T21:09:57.019Z,21.10
2023-09-29T21:12:59.239Z,21.12
2023-09-29T21:16:01.770Z,21.08
2023-09-29T21:19:05.374Z,21.06
2023-09-29T21:22:07.868Z,20.98
2023-09-29T21:25:11.893Z,20.98
2023-09-29T21:28:14.268Z,20.94
2023-09-29T21:31:16.787Z,20.98
2023-09-29T21:34:19.638Z,20.90
2023-09-29T21:37:21.788Z,20.94
2023-09-29T21:40:23.940Z,20.87
2023-09-29T21:43:26.110Z,20.84
2023-09-29T21:46:28.370Z,20.80
2023-09-29T21:49:30.868Z,20.77
2023-09-29T21:52:33.115Z,20.75
2023-09-29T21:55:36.999Z,20.77
2023-09-29T21:58:39.255Z,20.69
2023-09-29T22:01:42.183Z,20.65
2023-09-29T22:04:44.518Z,20.69
2023-09-29T22:07:47.292Z,20.64
2023-09-29T22:10:50.628Z,20.57
2023-09-29T22:13:53.040Z,20.49
2023-09-29T22:16:55.228Z,20.49
2023-09-29T22:19:57.536Z,20.46
2023-09-29T22:23:00.098Z,20.45
2023-09-29T22:26:02.318Z,20.45
2023-09-29T22:29:04.726Z,20.38
2023-09-29T22:32:06.981Z,20.27
2023-09-29T22:35:09.908Z,20.31
2023-09-29T22:38:12.088Z,20.29
2023-09-29T22:41:16.308Z,20.23
2023-09-29T22:44:18.640Z,20.25
2023-09-29T22:47:20.894Z,20.09
2023-09-29T22:50:23.248Z,20.21
2023-09-29T22:53:28.548Z,20.21
2023-09-29T22:56:30.885Z,20.23
2023-09-29T22:59:33.536Z,20.25
2023-09-29T23:02:36.267Z,20.25
2023-09-29T23:05:38.614Z,20.23
2023-09-29T23:08:40.888Z,20.16
2023-09-29T23:11:43.189Z,20.17
2023-09-29T23:14:46.221Z,20.10
2023-09-29T23:17:48.503Z,20.09
2023-09-29T23:20:52.049Z,19.98
2023-09-29T23:23:54.877Z,20.07
2023-09-29T23:26:57.101Z,20.01
2023-09-29T23:29:59.351Z,20.08
2023-09-29T23:33:01.641Z,20.02
2023-09-29T23:36:07.717Z,19.88
2023-09-29T23:39:12.500Z,19.81
2023-09-29T23:42:15.093Z,19.88
2023-09-29T23:45:17.421Z,19.81
2023-09-29T23:48:19.760Z,19.75
2023-09-29T23:51:22.041Z,19.75
2023-09-29T23:54:26.412Z,19.74
2023-09-29T23:57:28.643Z,19.69
